Registrácia


Zabudnuté heslo / Lost Password

​​
Online: domasa
Dievča týždňa
Klikni pre zvacsenie
Chlap týždňa
Klikni pre zvacsenie
nasetipy.com - filmová diskusia   nasetipy.com - politicke kecy

Revolut detailné informácie
Ford Auto, Ford novinky


SportLiga.sk - Športové amatérske ligy pre celé Slovensko!

Viac o Tipli nájdeš TU

tipli - ziskaj zlavu pri nakupovani

tipli - ziskaj zlavu pri nakupovani

Skrill - Internetová peňaženka

Zažite skutočné výhry a výnimočné okamihy – alebo si vytvorte ten svoj – na jackpotovej stránke.

Prosím, ak máte záujem tipovať vo Fortune, zaregistrujte sa cez nasledujúci textový odkaz.

Registrácia SK zákazníkov
Registrácia CZ zákazníkov

Live Výsledky

filmyaserialy.com

mojezvieratko.sk

Ak sa Vám NašeTipy páčia, zdieľajte 

Naše Štatistiky




Celkové štatistiky webu:
tip OK 187056 tip KO 247110 | Priemerný OK kurz: 2.21 | Priemerný KO kurz: 3.7

Kliknutím na daný nick v tabuľke získate prehľad jeho zápasov. Nájdi zápasy od nicku:
Vyhľadaj tipy pre daný šport:


tip OK OK tip | tip KO KO tip | tip nevyhodnoteny Nevyhodnotený tip | tip storno Storno tip

<< < 8489 | 8490 | 8491 | 8492 | 8493 | 8494 | 8495 | 8496 | 8497 | 8498 > >>
 Nick   Dátum   Šport   Zápas   Tip   Vklad (Dôvera)   Kurz   Výsledok   Zadanie tipu   
 R1   20.02.2012 Futbal  Bursaspor - Buyuksehir   1   7   1.91   2:1   2012-02-20 11:52:00 tip OK
 R1   20.02.2012 Futbal  Nantes - Metz   1   6   1.95   0:0   2012-02-20 11:50:00 tip KO
 UsainBolt   20.02.2012 Volejbal  Panathinaikos-AO Kifisias   2   8   1.75   0:3   2012-02-20 11:45:00 tip OK
 Newko   20.02.2012 Ľadový hokej  Skelleftea-Timra   1 tretina - 1   7   1.82   1:0   2012-02-20 11:16:00 tip OK
 Newko   20.02.2012 Ľadový hokej  Dukla Jihlava-Hr.Králové   1   8   1.6   4:5pp   2012-02-20 11:15:00 tip KO
 steven   20.02.2012 Tenis  Donskoy - Červenák   1   7   1.55   2:0   2012-02-20 10:33:00 tip OK
 steven   20.02.2012 Tenis  Hájek - Naso   1   7   1.5   2:0   2012-02-20 10:32:00 tip OK
 Morpheus   20.02.2012 Futbal  Aue-Braunschweig    1   5   2.69   1:1   2012-02-20 09:27:00 tip KO
 Morpheus   20.02.2012 Futbal  Nantes-Metz    1   7   1.9   0:0   2012-02-20 09:26:00 tip KO
 Morpheus   20.02.2012 Futbal  Tigre-San Martín    1   7   1.9   3:1   2012-02-20 09:25:00 tip OK
 steve81   20.02.2012 Ľadový hokej  SEVERSTAL ČEREPOVEC - VÍŤAZ ČECHOV   over 4,5   7   1.57   8:2   2012-02-20 07:32:00 tip OK
 mozok   19.02.2012 Ľadový hokej  Dallas-Nashville   1   6   2.4   2:3   2012-02-19 23:17:00 tip KO
 mozok   19.02.2012 Ľadový hokej  NY Rangers-Columbus   over 5,5 g.   7   1.85   3:2pp   2012-02-19 23:14:00 tip KO
 mozok   19.02.2012 Ľadový hokej  Florida-Anaheim   X   5   3.74   0:2   2012-02-19 23:12:00 tip KO
 Chris   20.02.2012 Basketbal  Houston-Utah   Kevin Martin 19,5 over   8   1.8   11   2012-02-19 23:10:00 tip KO
 voter   20.02.2012 Ľadový hokej  Edmonton - Vancouver   X   4   3.74   2:5   2012-02-19 23:07:00 tip KO
 Chris   20.02.2012 Basketbal  Phoenix-La Lakers   K.Bryant 28,5 over   8   1.8   32   2012-02-19 23:07:00 tip OK
 Chris   20.02.2012 Basketbal  Minnesota-Philadelphia   2   8   1.95   92:91   2012-02-19 23:04:00 tip KO
 voter   19.02.2012 Ľadový hokej  Florida - Anaheim   1   5   2.3   0:2   2012-02-19 22:52:00 tip KO
 slaven   20.02.2012 Basketbal  Minnesota Timberwolves - Philadelphia 76ers   2   6   1.952   92:91   2012-02-19 22:51:00 tip KO
 gustavedore   19.02.2012 Ľadový hokej  florida-anahaim   1   5   2.2   0:2   2012-02-19 21:52:00 tip KO
 skočko   19.02.2012 Ľadový hokej  Wild - Bruins   2   4   1.9   2:0   2012-02-19 20:45:00 tip KO
 maTAKtik   19.01.2012 Futbal  Paríž St.G.-Montpellier   2x   7   1.9   2:2   2012-02-19 20:31:00 tip OK
 maTAKtik   19.01.2012 Futbal  Udinese-Cagliari   2x   7   1.76   0:0   2012-02-19 20:30:00 tip OK
 maTAKtik   19.01.2012 Futbal  Palermo-Lazio   1   7   2.2   5:1   2012-02-19 20:30:00 tip OK
 Michalides   19.02.2012 Futbal  Udinese vs Cagliari   2   5   4.33   0:0   2012-02-19 19:48:00 tip KO
 bufo   19.02.2012 Tenis  Kudla-Kendrick    1   8   1.67   0:2   2012-02-19 19:21:00 tip KO
 paces   19.02.2012 Ľadový hokej  Minnesota-Boston   víťaz do rozhodnutia 1   6   2.25   2:0   2012-02-19 19:03:00 tip OK
 paces   19.02.2012 Futbal  Palermo-Lazio   1   7   2.2   5:1   2012-02-19 19:01:00 tip OK
 paces   19.02.2012 Futbal  Barcelona-Valencia   2   5   8.84   5:1   2012-02-19 18:59:00 tip KO
 steve81   19.02.2012 Basketbal  New York Knicks - Dallas Mavericks   2   6   1.67   104:97   2012-02-19 17:52:00 tip KO
 laci74   19.02.2012 Ľadový hokej  NY Rangers-Columbus   1.tretina 1   5   2.02   1:0   2012-02-19 16:33:00 tip OK
 Beloch   19.02.2012 Ľadový hokej  Lorenskog-Stavanger   1   7   2.15   3:4   2012-02-19 16:10:00 tip KO
 Beloch   19.02.2012 Ľadový hokej  Martin-Zvolen   1   7   2.3   2:1pp   2012-02-19 15:29:00 tip KO
 bufo   19.02.2012 Hádzaná  Kiel-Ademar Leon    Hcp gamm 0:5,5 Kiel   7   1.85   38:28   2012-02-19 15:27:00 tip OK
 femina   19.02.2012 Ľadový hokej  Plzeň - Kladno   1   6   1.62   0:4   2012-02-19 15:27:00 tip KO
 femina   19.02.2012 Ľadový hokej  HC Lev - Barys Astan   2   7   1.8   2:3   2012-02-19 15:24:00 tip OK
 skočko   19.02.2012 Futbal  Teplice - Plzeň   Marek Bakoš dá gól   3   2.5   ano   2012-02-19 15:22:00 tip OK
 skočko   19.02.2012 Futbal  Bordeaux - Lyonnais   1   4   2.4   1:0   2012-02-19 15:16:00 tip OK
 bufo   19.02.2012 Tenis  Azarenka-Stosur    Hcp gamm 0:3,5 Azarenka   7   1.7   2:0   2012-02-19 15:01:00 tip OK
 xxxboards   19.02.2012 Ľadový hokej  Buffalo-Pittsburgh   výhra hostí (2 )   7   2.2   6:2   2012-02-19 14:30:00 tip KO
 hegi007   19.02.2012 Ľadový hokej  Plzeň 1929-Kladno    počet golov 5,5 over   6   1.75   0:4   2012-02-19 13:28:00 tip KO
 laci74   19.02.2012 Ľadový hokej  Košice - Žilina   1.tretina 1   6   1.72   2:0   2012-02-19 13:19:00 tip OK
 Sagi333   19.02.2012 Futbal  Sportin lisabon - Fereirra   2    5   6.1   1:0   2012-02-19 12:53:00 tip KO
 Bonifac2   19.02.2012 Tenis  Larsson J. - Pavlovic, Irena   2   7   2.25   2:1   2012-02-19 12:51:00 tip KO
 Bonifac2   19.02.2012 Tenis  Arruabarrena-Vecino L. - Panova, Alexandra    over 21,5   8   1.82   2:0   2012-02-19 12:51:00 tip KO
 Bonifac2   19.02.2012 Tenis  Kudla D. - Kendrick R.   1   10   1.6   0:2   2012-02-19 12:50:00 tip KO
 sefty   19.02.2012 Tenis  federer -del potro   23,5+ gamy   7   1.85   2:0   2012-02-19 12:49:00 tip KO
 xxxboards   19.02.2012 Futbal  Cesena-AC Milan   výhra hostí (2 )   7   1.6   1:3   2012-02-19 12:48:00 tip OK
 scriblle   19.02.2012 Ľadový hokej  skalica - nitra   1. tretina 1   7   1.8   3:2   2012-02-19 12:32:00 tip OK
<< < 8489 | 8490 | 8491 | 8492 | 8493 | 8494 | 8495 | 8496 | 8497 | 8498 > >>





Injuries and Suspensions